Time;durP1;ratioP1;P1;durP2;ratioP2;P2;SDS_P1;SDS_P2;PMS_P1;PMS_P2;Temp;Humidity;BMP_temperature;BMP_pressure;BME280_temperature;BME280_humidity;BME280_pressure;Samples;Min_cycle;Max_cycle;Signal;HPM_P1;HPM_P2
2023/06/02 00:02:13;;;;;;;9.27;5.85;;;21.00;62.70;;;;;;4995859;28;20030;-63
2023/06/02 00:04:40;;;;;;;9.43;5.55;;;21.00;62.80;;;;;;4975895;28;20498;-63
2023/06/02 00:07:07;;;;;;;6.70;5.00;;;21.00;62.70;;;;;;4997531;28;20030;-64
2023/06/02 00:09:43;;;;;;;8.50;5.53;;;21.00;62.70;;;;;;4991080;28;20030;-65
2023/06/02 00:12:10;;;;;;;7.75;5.22;;;21.00;62.70;;;;;;4981502;28;20516;-63
2023/06/02 00:14:42;;;;;;;7.70;4.93;;;21.00;62.70;;;;;;4995355;28;20053;-64
2023/06/02 00:17:08;;;;;;;7.75;5.20;;;21.00;62.70;;;;;;4997590;28;20033;-63
2023/06/02 00:19:35;;;;;;;6.88;4.72;;;21.00;62.70;;;;;;4994911;28;20030;-63
2023/06/02 00:22:03;;;;;;;7.38;4.50;;;21.00;62.80;;;;;;4995320;28;20037;-62
2023/06/02 00:24:29;;;;;;;6.80;5.13;;;21.00;62.70;;;;;;5003807;28;20461;-65
2023/06/02 00:26:54;;;;;;;6.53;4.90;;;21.00;62.70;;;;;;4992464;28;20073;-65
2023/06/02 00:29:20;;;;;;;5.95;5.10;;;21.00;62.70;;;;;;5007563;28;20125;-65
2023/06/02 00:31:45;;;;;;;8.77;4.80;;;21.00;62.70;;;;;;4994660;28;20029;-63
2023/06/02 00:34:11;;;;;;;7.70;4.57;;;21.00;62.70;;;;;;4983091;28;20560;-65
2023/06/02 00:36:37;;;;;;;7.13;4.97;;;21.00;62.70;;;;;;4999495;28;20033;-64
2023/06/02 00:39:03;;;;;;;7.93;4.93;;;21.00;62.70;;;;;;4995286;28;20030;-64
2023/06/02 00:41:29;;;;;;;7.18;4.30;;;21.00;62.70;;;;;;4998173;28;20030;-64
2023/06/02 00:43:55;;;;;;;5.32;4.60;;;21.00;62.70;;;;;;4981912;28;20022;-64
2023/06/02 00:46:21;;;;;;;7.72;4.28;;;21.00;62.70;;;;;;4997101;28;20030;-64
2023/06/02 00:48:48;;;;;;;6.95;4.47;;;21.00;62.70;;;;;;4979193;28;20628;-64
2023/06/02 00:51:14;;;;;;;5.20;4.43;;;21.00;62.70;;;;;;5000163;28;20069;-64
2023/06/02 00:53:40;;;;;;;5.07;4.25;;;21.00;62.70;;;;;;4980862;28;20369;-65
2023/06/02 00:56:06;;;;;;;5.53;3.88;;;21.00;62.70;;;;;;4989071;28;20472;-64
2023/06/02 00:58:37;;;;;;;5.85;4.05;;;21.00;62.70;;;;;;4980271;28;20053;-65
2023/06/02 01:01:03;;;;;;;6.13;4.00;;;21.00;62.70;;;;;;4997603;28;20088;-65
2023/06/02 01:03:29;;;;;;;5.20;4.00;;;21.00;62.60;;;;;;4995597;28;20121;-64
2023/06/02 01:05:57;;;;;;;6.18;3.60;;;21.00;62.60;;;;;;4985809;28;20027;-62
2023/06/02 01:08:24;;;;;;;4.07;3.63;;;21.00;62.60;;;;;;4997251;28;20053;-65
2023/06/02 01:10:50;;;;;;;4.70;3.97;;;21.00;62.60;;;;;;4980840;28;20030;-65
2023/06/02 01:13:16;;;;;;;6.60;4.15;;;21.00;62.60;;;;;;4988311;28;20642;-65
2023/06/02 01:15:44;;;;;;;5.20;3.88;;;20.90;62.60;;;;;;5002470;28;20034;-64
2023/06/02 01:18:12;;;;;;;4.15;3.50;;;20.90;62.60;;;;;;4998071;28;20053;-64
2023/06/02 01:20:51;;;;;;;5.60;3.88;;;20.90;62.60;;;;;;4998871;28;20032;-64
2023/06/02 01:23:21;;;;;;;4.28;3.30;;;20.90;62.60;;;;;;4983722;28;20041;-64
2023/06/02 01:25:47;;;;;;;5.85;3.60;;;20.90;62.60;;;;;;4984776;28;21129;-64
2023/06/02 01:28:13;;;;;;;5.30;3.55;;;20.90;62.60;;;;;;4997279;28;20034;-65
2023/06/02 01:30:39;;;;;;;3.95;3.30;;;20.90;62.60;;;;;;4993089;28;20030;-64
2023/06/02 01:33:31;;;;;;;3.60;2.70;;;20.90;62.50;;;;;;4995459;28;20038;-65
2023/06/02 01:36:00;;;;;;;4.70;2.88;;;20.90;62.50;;;;;;4968151;28;20056;-65
2023/06/02 01:38:27;;;;;;;4.93;3.47;;;20.90;62.60;;;;;;4995673;28;20518;-64
2023/06/02 01:40:55;;;;;;;3.67;3.33;;;20.90;62.60;;;;;;4996580;28;20096;-63
2023/06/02 01:43:21;;;;;;;5.03;3.67;;;20.90;62.50;;;;;;4982569;28;20113;-65
2023/06/02 01:45:47;;;;;;;3.92;3.10;;;20.90;62.50;;;;;;4993667;28;20117;-64
2023/06/02 01:48:13;;;;;;;4.57;3.63;;;20.90;62.50;;;;;;4997492;28;20035;-64
2023/06/02 01:50:38;;;;;;;4.43;3.05;;;20.90;62.50;;;;;;4993953;28;20038;-64
2023/06/02 01:53:04;;;;;;;3.50;3.20;;;20.90;62.50;;;;;;4997901;28;20042;-63
2023/06/02 01:55:30;;;;;;;4.53;3.13;;;20.90;62.50;;;;;;4982967;28;20030;-65
2023/06/02 01:57:56;;;;;;;4.90;3.15;;;20.90;62.60;;;;;;4997451;28;20030;-64
2023/06/02 02:00:22;;;;;;;3.95;2.95;;;20.90;62.50;;;;;;4995760;28;20034;-65
2023/06/02 02:02:49;;;;;;;3.67;3.33;;;20.90;62.50;;;;;;4994907;28;20408;-65
2023/06/02 02:05:15;;;;;;;4.43;3.53;;;20.90;62.50;;;;;;4984094;28;20543;-63
2023/06/02 02:07:45;;;;;;;4.47;3.05;;;20.90;62.50;;;;;;4999691;28;20037;-64
2023/06/02 02:10:12;;;;;;;3.47;2.72;;;20.90;62.50;;;;;;4994632;28;20053;-64
2023/06/02 02:12:41;;;;;;;3.97;2.75;;;20.90;62.50;;;;;;4996676;28;20033;-64
2023/06/02 02:15:07;;;;;;;4.07;3.17;;;20.90;62.50;;;;;;4997497;28;20397;-64
2023/06/02 02:17:44;;;;;;;4.15;3.03;;;20.90;62.50;;;;;;4982286;28;20030;-64
2023/06/02 02:20:11;;;;;;;3.45;2.72;;;20.90;62.50;;;;;;4980853;28;20026;-65
2023/06/02 02:22:36;;;;;;;4.10;2.80;;;20.90;62.50;;;;;;4996793;28;20084;-65
2023/06/02 02:25:02;;;;;;;2.83;2.53;;;20.90;62.50;;;;;;4991936;28;20444;-66
2023/06/02 02:27:28;;;;;;;3.60;2.80;;;20.90;62.50;;;;;;4996866;28;20034;-64
2023/06/02 02:29:53;;;;;;;3.30;3.00;;;20.90;62.40;;;;;;4982979;28;20049;-65
2023/06/02 02:32:19;;;;;;;3.67;2.55;;;20.90;62.50;;;;;;4993564;28;20041;-64
2023/06/02 02:34:46;;;;;;;4.40;2.92;;;20.90;62.50;;;;;;4993293;28;20070;-64
2023/06/02 02:37:12;;;;;;;3.08;2.58;;;20.80;62.40;;;;;;4991174;28;20536;-64
2023/06/02 02:39:38;;;;;;;3.03;2.45;;;20.90;62.50;;;;;;4993488;28;20026;-63
2023/06/02 02:42:04;;;;;;;4.82;3.10;;;20.90;62.40;;;;;;4999792;28;20025;-63
2023/06/02 02:44:30;;;;;;;3.40;2.75;;;20.90;62.50;;;;;;4998404;28;20041;-63
2023/06/02 02:46:58;;;;;;;2.83;2.58;;;20.80;62.40;;;;;;4984033;28;20521;-63
2023/06/02 02:49:23;;;;;;;3.00;2.70;;;20.80;62.40;;;;;;5000275;28;20026;-65
2023/06/02 02:51:49;;;;;;;3.80;3.00;;;20.80;62.40;;;;;;4997617;28;20040;-62
2023/06/02 02:54:14;;;;;;;3.15;2.85;;;20.80;62.40;;;;;;4997187;28;20044;-65
2023/06/02 02:56:40;;;;;;;3.85;2.78;;;20.80;62.40;;;;;;4976786;28;20339;-65
2023/06/02 02:59:05;;;;;;;4.63;2.70;;;20.80;62.40;;;;;;4996886;28;20069;-64
2023/06/02 03:01:32;;;;;;;3.53;2.80;;;20.90;62.40;;;;;;4995273;28;20041;-64
2023/06/02 03:03:58;;;;;;;3.50;2.50;;;20.80;62.40;;;;;;4996968;28;20038;-65
2023/06/02 03:06:31;;;;;;;2.47;2.25;;;20.80;62.40;;;;;;4993407;28;20041;-64
2023/06/02 03:08:58;;;;;;;3.55;2.28;;;20.80;62.40;;;;;;4993924;28;20034;-64
2023/06/02 03:11:24;;;;;;;2.95;2.17;;;20.80;62.40;;;;;;4994720;28;20133;-64
2023/06/02 03:13:50;;;;;;;3.40;2.30;;;20.80;62.30;;;;;;4997422;28;20129;-65
2023/06/02 03:16:16;;;;;;;3.55;2.75;;;20.80;62.30;;;;;;4978391;28;20484;-63
2023/06/02 03:18:42;;;;;;;2.63;2.42;;;20.80;62.30;;;;;;4992474;28;20402;-64
2023/06/02 03:21:07;;;;;;;2.40;2.10;;;20.80;62.40;;;;;;4994127;28;20558;-64
2023/06/02 03:23:33;;;;;;;3.38;2.78;;;20.80;62.30;;;;;;4998945;28;20026;-64
2023/06/02 03:26:03;;;;;;;3.05;2.72;;;20.80;62.30;;;;;;4993308;28;20049;-64
2023/06/02 03:28:28;;;;;;;2.70;2.22;;;20.80;62.30;;;;;;4995166;28;20105;-64
2023/06/02 03:30:54;;;;;;;4.20;2.70;;;20.80;62.40;;;;;;4996144;28;20307;-63
2023/06/02 03:33:19;;;;;;;2.50;2.30;;;20.80;62.40;;;;;;4999609;28;20050;-64
2023/06/02 03:35:45;;;;;;;3.33;2.28;;;20.80;62.40;;;;;;4992039;28;20018;-65
2023/06/02 03:38:11;;;;;;;3.47;2.60;;;20.80;62.40;;;;;;4992692;28;20497;-65
2023/06/02 03:40:36;;;;;;;2.38;2.10;;;20.80;62.30;;;;;;4982513;28;20065;-64
2023/06/02 03:43:02;;;;;;;2.58;1.90;;;20.80;62.40;;;;;;4996127;28;20061;-65
2023/06/02 03:45:27;;;;;;;3.15;1.98;;;20.80;62.40;;;;;;5000046;28;20044;-62
2023/06/02 03:47:53;;;;;;;3.67;2.50;;;20.80;62.30;;;;;;5000689;28;20034;-63
2023/06/02 03:50:18;;;;;;;3.28;2.15;;;20.80;62.40;;;;;;5000118;28;20045;-63
2023/06/02 03:52:44;;;;;;;2.75;2.08;;;20.80;62.30;;;;;;5001520;28;20524;-63
2023/06/02 03:55:10;;;;;;;2.95;2.35;;;20.80;62.30;;;;;;5001413;28;20101;-61
2023/06/02 03:57:35;;;;;;;2.90;2.25;;;20.70;62.30;;;;;;4998340;28;20030;-63
2023/06/02 04:00:01;;;;;;;3.55;2.33;;;20.80;62.30;;;;;;4997430;28;20030;-61
2023/06/02 04:02:26;;;;;;;2.22;2.00;;;20.80;62.30;;;;;;4984616;28;20062;-62
2023/06/02 04:04:52;;;;;;;2.85;2.55;;;20.70;62.30;;;;;;4998620;28;20026;-64
2023/06/02 04:07:17;;;;;;;4.15;2.65;;;20.80;62.30;;;;;;4994951;28;20034;-65
2023/06/02 04:09:43;;;;;;;3.70;2.20;;;20.80;62.30;;;;;;4998335;28;20030;-65
2023/06/02 04:12:09;;;;;;;4.72;2.85;;;20.70;62.30;;;;;;4999934;28;20038;-65
2023/06/02 04:14:34;;;;;;;2.30;2.10;;;20.70;62.30;;;;;;4999288;28;20389;-63
2023/06/02 04:17:00;;;;;;;2.33;2.13;;;20.80;62.30;;;;;;4983413;28;20045;-67
2023/06/02 04:19:25;;;;;;;2.95;2.20;;;20.70;62.30;;;;;;5000247;28;20033;-65
2023/06/02 04:21:52;;;;;;;2.72;2.05;;;20.70;62.20;;;;;;5000076;28;20034;-66
2023/06/02 04:24:17;;;;;;;3.50;2.45;;;20.70;62.30;;;;;;4981094;28;20065;-65
2023/06/02 04:26:45;;;;;;;2.50;2.20;;;20.70;62.30;;;;;;4997258;28;20490;-64
2023/06/02 04:29:11;;;;;;;3.00;2.03;;;20.70;62.30;;;;;;4995128;28;20232;-65
2023/06/02 04:31:42;;;;;;;4.60;2.85;;;20.70;62.30;;;;;;4998560;28;20576;-65
2023/06/02 04:34:08;;;;;;;2.60;1.90;;;20.70;62.30;;;;;;4996850;28;20084;-65
2023/06/02 04:36:36;;;;;;;4.03;2.10;;;20.70;62.30;;;;;;4995866;28;20125;-66
2023/06/02 04:39:02;;;;;;;3.15;2.30;;;20.70;62.30;;;;;;5003371;28;20029;-66
2023/06/02 04:41:29;;;;;;;3.80;2.30;;;20.70;62.30;;;;;;4999782;28;20030;-64
2023/06/02 04:43:54;;;;;;;3.15;1.80;;;20.70;62.30;;;;;;5000716;28;20030;-65
2023/06/02 04:46:20;;;;;;;2.40;2.08;;;20.70;62.30;;;;;;4997702;28;20034;-65
2023/06/02 04:48:45;;;;;;;2.30;2.10;;;20.70;62.30;;;;;;5001268;28;20034;-65
2023/06/02 04:51:10;;;;;;;3.53;2.30;;;20.70;62.30;;;;;;4995054;28;20053;-66
2023/06/02 04:53:36;;;;;;;3.60;2.20;;;20.70;62.30;;;;;;5000656;28;20292;-64
2023/06/02 04:56:02;;;;;;;3.65;2.60;;;20.70;62.30;;;;;;4998260;28;20023;-64
2023/06/02 04:58:28;;;;;;;3.67;2.15;;;20.70;62.30;;;;;;4993728;28;20049;-63
2023/06/02 05:00:53;;;;;;;4.30;2.50;;;20.70;62.30;;;;;;5000981;28;20026;-62
2023/06/02 05:03:19;;;;;;;2.75;1.90;;;20.60;62.30;;;;;;4994678;28;20036;-64
2023/06/02 05:05:45;;;;;;;2.08;1.88;;;20.60;62.30;;;;;;4997226;28;20076;-63
2023/06/02 05:08:10;;;;;;;3.30;1.90;;;20.70;62.30;;;;;;4998054;28;20029;-64
2023/06/02 05:10:36;;;;;;;4.03;2.28;;;20.60;62.90;;;;;;4999042;28;20038;-65
2023/06/02 05:13:01;;;;;;;2.83;2.10;;;20.60;62.30;;;;;;4999511;28;20263;-65
2023/06/02 05:15:27;;;;;;;3.03;2.15;;;20.60;62.30;;;;;;4998414;28;20045;-64
2023/06/02 05:17:53;;;;;;;2.08;1.83;;;20.60;62.30;;;;;;4995294;28;20052;-65
2023/06/02 05:20:19;;;;;;;2.72;2.28;;;20.60;62.20;;;;;;4984332;28;20034;-68
2023/06/02 05:22:44;;;;;;;5.55;3.28;;;20.60;62.30;;;;;;4998408;28;20033;-65
2023/06/02 05:25:10;;;;;;;5.22;3.65;;;20.60;62.30;;;;;;4997039;28;20549;-64
2023/06/02 05:27:37;;;;;;;8.52;4.30;;;20.60;62.40;;;;;;4995893;28;20428;-63
2023/06/02 05:30:03;;;;;;;7.20;5.25;;;20.60;62.30;;;;;;4999601;28;20035;-68
2023/06/02 05:32:28;;;;;;;8.27;5.03;;;20.60;62.40;;;;;;4987992;28;20047;-65
2023/06/02 05:34:54;;;;;;;11.25;5.03;;;20.60;62.40;;;;;;4993916;28;20062;-65
2023/06/02 05:37:20;;;;;;;8.07;4.90;;;20.60;62.50;;;;;;4995505;28;20085;-64
2023/06/02 05:39:45;;;;;;;8.38;4.97;;;20.60;62.60;;;;;;4996591;28;20037;-61
2023/06/02 05:42:11;;;;;;;6.15;4.80;;;20.60;62.60;;;;;;4997948;28;20204;-64
2023/06/02 05:44:36;;;;;;;7.07;4.47;;;20.60;62.90;;;;;;4999749;28;20374;-64
2023/06/02 05:47:02;;;;;;;12.60;5.43;;;20.70;63.20;;;;;;4995842;28;20034;-64
2023/06/02 05:49:28;;;;;;;8.75;4.80;;;20.70;63.10;;;;;;4983620;28;20068;-62
2023/06/02 05:51:53;;;;;;;6.15;3.83;;;20.70;63.10;;;;;;4995038;28;20022;-63
2023/06/02 05:54:19;;;;;;;10.32;4.47;;;20.80;63.00;;;;;;4982536;28;20116;-62
2023/06/02 05:56:45;;;;;;;7.68;4.10;;;20.80;63.00;;;;;;4997995;28;20544;-63
2023/06/02 05:59:11;;;;;;;5.70;4.35;;;20.80;62.90;;;;;;4995631;28;20233;-65
2023/06/02 06:01:36;;;;;;;7.85;4.35;;;20.80;62.80;;;;;;4996378;28;20026;-63
2023/06/02 06:04:02;;;;;;;7.28;3.92;;;20.90;62.80;;;;;;4989230;28;20037;-63
2023/06/02 06:06:28;;;;;;;5.55;3.67;;;20.90;62.70;;;;;;4990462;28;20052;-61
2023/06/02 06:08:54;;;;;;;4.70;3.60;;;20.90;62.70;;;;;;5000491;28;20022;-63
2023/06/02 06:11:21;;;;;;;7.47;4.13;;;20.90;62.60;;;;;;4995213;28;20037;-62
2023/06/02 06:13:46;;;;;;;7.88;4.03;;;20.90;63.20;;;;;;4982651;28;20120;-64
2023/06/02 06:16:11;;;;;;;4.40;3.75;;;20.90;62.60;;;;;;4993694;28;20121;-65
2023/06/02 06:18:37;;;;;;;4.15;3.47;;;20.90;62.50;;;;;;4997376;28;20045;-64
2023/06/02 06:21:03;;;;;;;5.63;3.72;;;20.90;62.50;;;;;;4996825;28;20038;-63
2023/06/02 06:23:28;;;;;;;7.45;3.58;;;20.90;62.40;;;;;;4996798;28;20050;-63
2023/06/02 06:25:54;;;;;;;5.95;3.90;;;20.90;62.40;;;;;;4992375;28;20037;-61
2023/06/02 06:28:20;;;;;;;5.32;3.35;;;20.90;62.40;;;;;;4998696;28;20039;-63
2023/06/02 06:30:46;;;;;;;9.95;3.85;;;20.90;62.40;;;;;;4976257;28;20034;-63
2023/06/02 06:33:12;;;;;;;6.45;3.80;;;20.90;62.30;;;;;;4991390;28;20464;-63
2023/06/02 06:35:37;;;;;;;6.05;3.95;;;20.90;62.30;;;;;;4994906;28;20361;-63
2023/06/02 06:38:04;;;;;;;9.10;3.78;;;20.90;62.30;;;;;;4982981;28;20485;-64
2023/06/02 06:40:30;;;;;;;6.47;3.60;;;20.80;62.30;;;;;;4993364;28;20100;-64
2023/06/02 06:42:56;;;;;;;8.43;3.40;;;20.80;62.30;;;;;;4995498;28;20073;-64
2023/06/02 06:45:22;;;;;;;5.57;3.50;;;20.80;62.30;;;;;;4994340;28;20108;-63
2023/06/02 06:47:47;;;;;;;7.13;4.03;;;20.80;62.50;;;;;;4978885;28;20044;-65
2023/06/02 06:50:16;;;;;;;6.25;3.40;;;20.80;62.60;;;;;;4996204;28;20049;-63
2023/06/02 06:52:42;;;;;;;8.05;3.95;;;20.90;62.80;;;;;;4994299;28;20042;-65
2023/06/02 06:55:08;;;;;;;13.02;6.20;;;20.80;63.00;;;;;;4997536;28;20023;-65
2023/06/02 06:57:34;;;;;;;11.40;6.47;;;20.80;63.20;;;;;;4998007;28;20022;-65
2023/06/02 06:59:59;;;;;;;17.90;6.13;;;20.80;63.40;;;;;;4993173;28;20032;-65
2023/06/02 07:02:25;;;;;;;20.52;7.40;;;20.90;63.20;;;;;;4996842;28;20026;-65
2023/06/02 07:04:51;;;;;;;18.63;8.27;;;20.90;63.20;;;;;;4991264;28;20026;-65
2023/06/02 07:07:16;;;;;;;15.55;5.97;;;20.90;63.40;;;;;;4983503;28;20169;-67
2023/06/02 07:09:42;;;;;;;18.55;7.28;;;20.90;63.10;;;;;;4998056;28;20042;-64
2023/06/02 07:12:08;;;;;;;21.08;7.05;;;20.90;63.10;;;;;;4997026;28;20018;-66
2023/06/02 07:14:33;;;;;;;17.35;7.85;;;20.90;63.10;;;;;;5000365;28;20052;-65
2023/06/02 07:16:59;;;;;;;18.70;7.40;;;20.90;63.00;;;;;;4990925;28;20034;-63
2023/06/02 07:19:25;;;;;;;18.92;7.55;;;20.90;63.00;;;;;;4999174;28;20026;-64
2023/06/02 07:21:51;;;;;;;17.98;7.78;;;20.90;62.90;;;;;;4975589;28;20497;-63
2023/06/02 07:24:17;;;;;;;18.10;8.80;;;20.90;62.90;;;;;;4995225;28;20553;-65
2023/06/02 07:26:43;;;;;;;17.50;7.68;;;20.80;62.80;;;;;;4998275;28;20113;-66
2023/06/02 07:29:09;;;;;;;16.98;7.18;;;20.90;62.80;;;;;;5003783;28;20472;-65
2023/06/02 07:31:35;;;;;;;15.38;7.10;;;20.90;62.80;;;;;;4993163;28;20440;-65
2023/06/02 07:34:01;;;;;;;15.05;7.18;;;20.90;62.80;;;;;;4996559;28;20053;-63
2023/06/02 07:36:27;;;;;;;19.27;6.53;;;20.90;62.80;;;;;;5001641;28;20117;-65
2023/06/02 07:38:52;;;;;;;14.98;7.30;;;20.90;62.70;;;;;;5005075;28;20429;-65
2023/06/02 07:41:18;;;;;;;20.02;6.90;;;20.90;62.70;;;;;;5000370;28;20041;-65
2023/06/02 07:43:45;;;;;;;16.17;6.75;;;20.90;62.70;;;;;;5004241;28;20034;-64
2023/06/02 07:46:10;;;;;;;19.48;7.15;;;20.90;62.70;;;;;;5001611;28;20041;-65
2023/06/02 07:48:36;;;;;;;18.02;7.22;;;20.90;62.70;;;;;;4997963;28;20034;-65
2023/06/02 07:51:02;;;;;;;13.25;5.80;;;20.80;62.60;;;;;;4996384;28;20177;-65
2023/06/02 07:53:27;;;;;;;14.30;6.18;;;20.90;62.60;;;;;;4995417;28;20645;-62
2023/06/02 07:55:53;;;;;;;16.38;6.70;;;20.80;62.60;;;;;;4992909;28;20030;-66
2023/06/02 07:58:18;;;;;;;13.73;6.70;;;20.80;62.60;;;;;;4994095;28;20111;-65
2023/06/02 08:00:44;;;;;;;13.57;6.57;;;20.80;62.50;;;;;;4993254;28;20026;-65
2023/06/02 08:03:09;;;;;;;13.68;5.95;;;20.90;62.60;;;;;;4999131;28;20030;-65
2023/06/02 08:05:35;;;;;;;13.43;6.65;;;20.80;62.50;;;;;;4999814;28;20109;-66
2023/06/02 08:08:01;;;;;;;12.25;6.18;;;20.80;62.50;;;;;;4997311;28;20997;-65
2023/06/02 08:10:26;;;;;;;11.50;5.78;;;20.80;62.40;;;;;;4999543;28;20519;-65
2023/06/02 08:12:52;;;;;;;16.33;6.15;;;20.80;62.40;;;;;;4996676;28;20030;-66
2023/06/02 08:15:17;;;;;;;15.93;5.78;;;20.90;62.50;;;;;;5001601;28;20030;-66
2023/06/02 08:17:43;;;;;;;12.43;5.72;;;20.90;62.40;;;;;;5000499;28;20025;-65
2023/06/02 08:20:09;;;;;;;13.77;5.90;;;20.80;62.40;;;;;;5000131;28;20800;-65
2023/06/02 08:22:36;;;;;;;10.73;5.90;;;20.90;62.40;;;;;;4995774;28;20063;-66
2023/06/02 08:25:02;;;;;;;15.15;5.85;;;20.80;62.30;;;;;;4994104;28;21552;-65
2023/06/02 08:27:28;;;;;;;16.75;5.95;;;20.80;62.30;;;;;;4995085;28;20057;-65
2023/06/02 08:29:56;;;;;;;11.07;5.60;;;20.80;62.30;;;;;;4993982;28;20031;-65
2023/06/02 08:32:22;;;;;;;10.60;5.35;;;20.80;62.30;;;;;;4994671;28;20104;-65
2023/06/02 08:34:50;;;;;;;13.27;5.85;;;20.80;62.30;;;;;;5001275;28;20037;-66
2023/06/02 08:37:19;;;;;;;10.20;4.88;;;20.80;62.30;;;;;;5000745;28;20033;-64
2023/06/02 08:39:46;;;;;;;10.70;5.38;;;20.80;62.30;;;;;;5001914;28;20030;-65
2023/06/02 08:42:13;;;;;;;14.00;4.97;;;20.80;62.30;;;;;;4996393;28;20037;-66
2023/06/02 08:44:41;;;;;;;8.82;4.65;;;20.80;62.20;;;;;;5001195;28;20026;-65
2023/06/02 08:47:11;;;;;;;11.52;5.20;;;20.80;62.30;;;;;;4996376;28;20034;-64
2023/06/02 08:49:46;;;;;;;15.43;4.97;;;20.80;62.10;;;;;;5002385;28;20234;-65
2023/06/02 08:52:19;;;;;;;11.57;4.90;;;20.80;62.20;;;;;;4984898;28;20038;-65
2023/06/02 08:54:46;;;;;;;9.25;4.57;;;20.80;62.10;;;;;;4994932;28;20042;-65
2023/06/02 08:57:16;;;;;;;11.80;4.60;;;20.80;62.10;;;;;;4993718;28;20030;-65
2023/06/02 08:59:43;;;;;;;10.23;4.32;;;20.80;62.10;;;;;;4998660;28;20440;-66
2023/06/02 09:02:09;;;;;;;8.95;4.43;;;20.80;62.10;;;;;;4980899;28;20400;-66
2023/06/02 09:04:35;;;;;;;8.00;4.28;;;20.80;62.00;;;;;;5002966;28;20061;-65
2023/06/02 09:07:12;;;;;;;11.15;4.88;;;20.80;62.00;;;;;;5000787;28;20177;-65
2023/06/02 09:09:40;;;;;;;8.85;4.72;;;20.80;62.00;;;;;;5001430;28;20049;-65
2023/06/02 09:12:08;;;;;;;10.65;3.97;;;20.80;62.00;;;;;;4999506;28;20038;-66
2023/06/02 09:14:34;;;;;;;10.27;4.32;;;20.80;62.00;;;;;;5000433;28;20038;-68
2023/06/02 09:17:00;;;;;;;11.40;4.38;;;20.80;62.00;;;;;;4998376;28;20033;-64
2023/06/02 09:19:26;;;;;;;8.80;4.25;;;20.80;62.00;;;;;;4995238;28;20056;-69
2023/06/02 09:21:51;;;;;;;10.82;4.00;;;20.80;61.90;;;;;;4992967;28;20113;-62
2023/06/02 09:24:31;;;;;;;10.48;4.30;;;20.80;62.00;;;;;;4994161;28;20508;-66
2023/06/02 09:26:57;;;;;;;8.57;4.30;;;20.80;61.90;;;;;;5004295;28;20026;-65
2023/06/02 09:29:23;;;;;;;10.18;3.90;;;20.80;61.90;;;;;;4993247;28;20445;-67
2023/06/02 09:31:59;;;;;;;8.05;4.20;;;20.80;61.90;;;;;;4992635;28;20056;-65
2023/06/02 09:34:33;;;;;;;9.88;4.00;;;20.80;62.00;;;;;;5002078;28;20063;-65
2023/06/02 09:37:07;;;;;;;10.02;3.85;;;20.80;61.90;;;;;;4984211;28;20037;-65
2023/06/02 09:39:43;;;;;;;9.30;3.67;;;20.80;61.90;;;;;;4998196;28;20042;-65
2023/06/02 09:42:11;;;;;;;7.75;3.47;;;20.80;61.90;;;;;;5000589;28;20349;-65
2023/06/02 09:44:37;;;;;;;12.20;4.20;;;20.80;61.90;;;;;;4999130;28;20452;-65
2023/06/02 09:47:18;;;;;;;6.50;3.17;;;20.80;61.90;;;;;;4998394;28;20046;-66
2023/06/02 09:49:44;;;;;;;7.72;3.50;;;20.80;61.90;;;;;;4994679;28;20472;-66
2023/06/02 09:52:17;;;;;;;7.20;3.95;;;20.80;61.80;;;;;;4990294;28;20125;-60
2023/06/02 09:54:47;;;;;;;6.93;2.95;;;20.80;61.90;;;;;;4997509;28;20064;-66
2023/06/02 09:57:14;;;;;;;8.35;3.25;;;20.80;61.90;;;;;;4990503;28;20022;-65
2023/06/02 09:59:40;;;;;;;5.78;3.22;;;20.80;61.80;;;;;;4994139;28;20444;-65
2023/06/02 10:02:09;;;;;;;8.68;3.55;;;20.80;61.80;;;;;;4999308;28;20042;-66
2023/06/02 10:04:36;;;;;;;8.68;4.03;;;20.80;61.90;;;;;;4999523;28;20060;-66
2023/06/02 10:07:26;;;;;;;8.93;3.70;;;20.80;61.80;;;;;;4997962;28;20044;-65
2023/06/02 10:10:13;;;;;;;7.18;3.15;;;20.80;61.90;;;;;;4982200;28;20073;-64
2023/06/02 10:13:04;;;;;;;7.60;3.00;;;20.80;61.90;;;;;;5000674;28;20041;-66
2023/06/02 10:15:53;;;;;;;7.65;3.10;;;20.80;61.90;;;;;;4997461;28;20026;-66
2023/06/02 10:18:44;;;;;;;8.48;3.30;;;20.80;61.90;;;;;;4995846;28;20513;-62
2023/06/02 10:21:21;;;;;;;6.18;2.88;;;20.80;61.90;;;;;;4995077;28;20038;-66
2023/06/02 10:24:02;;;;;;;10.15;3.42;;;20.80;61.90;;;;;;4991815;28;20027;-65
2023/06/02 10:26:52;;;;;;;6.03;2.97;;;20.80;61.90;;;;;;4992910;28;20443;-64
2023/06/02 10:29:18;;;;;;;7.40;2.67;;;20.80;61.90;;;;;;4992455;28;20303;-66
2023/06/02 10:31:44;;;;;;;8.07;2.53;;;20.80;61.90;;;;;;4999807;28;20045;-66
2023/06/02 10:34:35;;;;;;;5.95;2.70;;;20.80;61.90;;;;;;5000042;28;20034;-65
2023/06/02 10:37:01;;;;;;;9.45;3.40;;;20.80;61.90;;;;;;4997930;28;20062;-65
2023/06/02 10:39:42;;;;;;;5.57;2.38;;;20.80;61.90;;;;;;4995674;28;20457;-66
2023/06/02 10:42:13;;;;;;;6.80;2.85;;;20.80;61.90;;;;;;4999509;28;20068;-65
2023/06/02 10:44:39;;;;;;;7.97;3.08;;;20.80;61.90;;;;;;4995829;28;20033;-64
2023/06/02 10:47:17;;;;;;;7.35;2.75;;;20.80;61.90;;;;;;4996771;28;20026;-66
2023/06/02 10:49:53;;;;;;;4.55;2.42;;;20.80;61.90;;;;;;4990858;28;20022;-65
2023/06/02 10:52:20;;;;;;;7.10;3.33;;;20.80;62.00;;;;;;4990725;28;20690;-65
2023/06/02 10:55:05;;;;;;;5.63;2.70;;;20.80;62.00;;;;;;4993291;28;20034;-63
2023/06/02 10:57:50;;;;;;;;;;;20.80;62.00;;;;;;4992868;28;20033;-65
2023/06/02 11:00:39;;;;;;;6.22;2.70;;;20.80;62.00;;;;;;4993305;28;19969;-65
2023/06/02 11:03:22;;;;;;;7.55;3.40;;;20.80;62.00;;;;;;4998962;28;20044;-65
2023/06/02 11:05:54;;;;;;;4.80;2.28;;;20.80;62.00;;;;;;4998745;28;20034;-66
2023/06/02 11:08:21;;;;;;;4.82;2.83;;;20.80;62.00;;;;;;4998747;28;20034;-66
2023/06/02 11:10:50;;;;;;;4.43;2.70;;;20.80;62.00;;;;;;5001471;28;20029;-65
2023/06/02 11:13:17;;;;;;;5.25;2.28;;;20.80;62.00;;;;;;4998452;28;20030;-65
2023/06/02 11:15:54;;;;;;;4.75;3.17;;;20.80;62.00;;;;;;4997236;28;20038;-63
2023/06/02 11:18:23;;;;;;;6.03;2.67;;;20.80;62.00;;;;;;4991434;28;20081;-65
2023/06/02 11:20:50;;;;;;;5.18;2.20;;;20.80;62.00;;;;;;4988297;28;20030;-64
2023/06/02 11:23:17;;;;;;;5.35;2.53;;;20.70;62.00;;;;;;4995926;28;20030;-66
2023/06/02 11:25:43;;;;;;;3.22;2.47;;;20.80;62.10;;;;;;5001144;28;20033;-65
2023/06/02 11:28:21;;;;;;;5.25;2.70;;;20.80;62.00;;;;;;4995305;28;20060;-65
2023/06/02 11:31:07;;;;;;;7.50;2.72;;;20.80;62.00;;;;;;4997607;28;20157;-65
2023/06/02 11:33:34;;;;;;;5.60;2.35;;;20.80;62.00;;;;;;4999725;28;20117;-65
2023/06/02 11:36:00;;;;;;;6.07;2.95;;;20.80;62.10;;;;;;4999743;28;20041;-66
2023/06/02 11:38:31;;;;;;;5.68;2.40;;;20.80;62.10;;;;;;4999916;28;20030;-66
2023/06/02 11:41:14;;;;;;;7.22;2.80;;;20.80;62.10;;;;;;4998442;28;20113;-65
2023/06/02 11:43:50;;;;;;;6.15;2.65;;;20.70;62.00;;;;;;4994712;28;20101;-63
2023/06/02 11:46:17;;;;;;;4.60;2.13;;;20.70;62.10;;;;;;4995112;28;20587;-65
2023/06/02 11:48:43;;;;;;;4.72;2.33;;;20.80;62.10;;;;;;4993674;28;20034;-66
2023/06/02 11:51:11;;;;;;;3.75;2.30;;;20.70;62.10;;;;;;4988698;28;20035;-66
2023/06/02 11:53:44;;;;;;;4.05;2.50;;;20.80;62.10;;;;;;4995552;28;20049;-65
2023/06/02 11:56:10;;;;;;;5.65;2.60;;;20.70;62.00;;;;;;4985150;28;20030;-62
2023/06/02 11:58:43;;;;;;;5.88;2.28;;;20.70;62.10;;;;;;4994100;28;20054;-66
2023/06/02 12:01:14;;;;;;;4.32;2.42;;;20.70;62.10;;;;;;4998031;28;20056;-65
2023/06/02 12:03:40;;;;;;;5.32;2.40;;;20.70;62.10;;;;;;4996676;28;20037;-65
2023/06/02 12:06:12;;;;;;;3.70;2.38;;;20.70;62.10;;;;;;4997215;28;20342;-65
2023/06/02 12:08:38;;;;;;;4.88;2.20;;;20.70;62.10;;;;;;4997880;28;20117;-66
2023/06/02 12:11:14;;;;;;;5.90;2.60;;;20.70;62.30;;;;;;4999203;28;20110;-64
2023/06/02 12:13:40;;;;;;;5.20;2.33;;;20.70;62.30;;;;;;4999005;28;20400;-64
2023/06/02 12:16:19;;;;;;;6.15;2.28;;;20.80;62.30;;;;;;4997432;28;20034;-66
2023/06/02 12:18:45;;;;;;;5.22;2.40;;;20.80;62.40;;;;;;4994150;28;20023;-65
2023/06/02 12:21:26;;;;;;;4.07;2.20;;;20.70;62.30;;;;;;4998092;28;20583;-65
2023/06/02 12:23:53;;;;;;;6.10;2.55;;;20.70;62.30;;;;;;4993943;28;20503;-65
2023/06/02 12:26:19;;;;;;;4.22;2.17;;;20.70;62.30;;;;;;4994080;28;20513;-65
2023/06/02 12:28:45;;;;;;;5.32;2.38;;;20.80;62.30;;;;;;4997007;28;20037;-66
2023/06/02 12:31:11;;;;;;;5.53;2.35;;;20.70;62.30;;;;;;4999982;28;20030;-65
2023/06/02 12:33:40;;;;;;;4.40;2.47;;;20.80;62.30;;;;;;5003475;28;20057;-63
2023/06/02 12:36:07;;;;;;;4.68;2.22;;;20.70;62.20;;;;;;5002365;28;20034;-66
2023/06/02 12:38:34;;;;;;;6.43;2.65;;;20.70;62.20;;;;;;5002101;28;20096;-67
2023/06/02 12:41:00;;;;;;;7.30;1.90;;;20.80;62.20;;;;;;4999268;28;20374;-66
2023/06/02 12:43:25;;;;;;;4.55;2.10;;;20.70;62.10;;;;;;4995512;28;20057;-66
2023/06/02 12:45:51;;;;;;;3.58;1.90;;;20.70;62.20;;;;;;4996125;28;20041;-66
2023/06/02 12:48:16;;;;;;;3.38;1.90;;;20.70;62.10;;;;;;4992118;28;20488;-63
2023/06/02 12:50:42;;;;;;;3.75;1.98;;;20.70;62.10;;;;;;4993305;28;20065;-67